Alaşehir Airport

LTBC · 马尼萨省, 土耳其

使用的METAR站距离机场85 km。
罗盘
风向 的
风: 0 kt, 0 beaufort

添加一条跑道以查看侧风和逆风信息。

添置 跑道
0 ft 1.000 2.000 3.000 4.000 5.000
CAVOK
METAR LTBD 032150Z 00000KT CAVOK 09/07 Q1015

METAR Alaşehir Airport - LTBC

Alaşehir Airport是,土耳其中的小机场。 该机场位于纬度38,37000和经度28,55710。 本场的ICAO机场代码为LTBC。 机场在Istanbul FIR中。

该航空气象观测是针对Çıldır Airport在2024年3月4日 00:50, 当地时间进行的。

机场观察

可变方向的风很小或没有风。

天气为CAVOK。这意味着在5.000 ft或MSA(最低安全高度)以下(以较高者为准)以下没有云。这也意味着没有观测到积雨云或高耸的积云,可见度为10 km 或者更多或更高。此外,不会有雾,降雨或其他重要天气。

温度和风寒是9 °C。 露点为7 °C,相对湿度为87%。 海平面上的气压为1015 hPa (QNH)。

白天

今天,太阳从07:34升起,在19:01降落。 这适用于Alaşehir Airport,世界夏令时可能有所不同。 当地时间与世界标准时间之间的时差为+3 小时。 当前,没有夏令时有效。

公司介绍

我们没有关于这个机场的公司信息。

体会

到Vliegles.nl去找飞行课程,跳伞和其他飞行体验。 浏览页面,了解Alaşehir Airport附近所有可用的活动。 你也可以使用搜索功能来寻找你所在地附近的特定飞行课程、跳伞或其他飞行体验。

温度 & 天气

温度 9 °C
露点 7 °C
相对湿度 87%
Kp-index 4 (0-9)

白天

日出
07:36 (6:15)
中午
13:20
日落
19:04

小工具

你想在你的网站上有一个关于Alaşehir Airport的当前航空天气(METAR)的小部件吗?

显示HTML代码
?>